Time;durP1;ratioP1;P1;durP2;ratioP2;P2;SDS_P1;SDS_P2;PMS_P1;PMS_P2;Temp;Humidity;BMP_temperature;BMP_pressure;BME280_temperature;BME280_humidity;BME280_pressure;Samples;Min_cycle;Max_cycle;Signal;HPM_P1;HPM_P2
2023/06/24 00:02:06;;;;;;;11.90;6.50;;;17.50;99.90;;;;;;5007508;28;20037;-68
2023/06/24 00:04:32;;;;;;;8.30;6.03;;;17.40;99.90;;;;;;5005562;28;20042;-68
2023/06/24 00:06:59;;;;;;;10.00;6.13;;;17.30;99.90;;;;;;5005778;28;20398;-68
2023/06/24 00:09:27;;;;;;;9.32;6.47;;;17.30;99.90;;;;;;5007374;28;21566;-68
2023/06/24 00:11:58;;;;;;;9.48;6.43;;;17.30;99.90;;;;;;5005323;28;20104;-68
2023/06/24 00:14:26;;;;;;;9.77;5.30;;;17.30;99.90;;;;;;5001656;28;20050;-68
2023/06/24 00:16:52;;;;;;;9.23;5.88;;;17.20;99.90;;;;;;4987344;28;20045;-68
2023/06/24 00:19:23;;;;;;;9.68;5.45;;;17.20;99.90;;;;;;5004147;28;20666;-68
2023/06/24 00:21:53;;;;;;;8.32;5.32;;;17.20;99.90;;;;;;5003754;28;20037;-68
2023/06/24 00:24:25;;;;;;;8.07;5.13;;;17.10;99.90;;;;;;5007367;28;20406;-68
2023/06/24 00:26:55;;;;;;;12.00;6.43;;;17.10;99.90;;;;;;5004064;28;20105;-68
2023/06/24 00:29:21;;;;;;;8.73;5.90;;;17.10;99.90;;;;;;5006178;28;20049;-68
2023/06/24 00:31:47;;;;;;;12.02;6.72;;;17.10;99.90;;;;;;5006657;28;20072;-68
2023/06/24 00:34:14;;;;;;;9.77;6.20;;;17.10;99.90;;;;;;5011859;28;20088;-68
2023/06/24 00:36:40;;;;;;;10.07;6.85;;;17.00;99.90;;;;;;4998500;28;20690;-68
2023/06/24 00:39:06;;;;;;;10.27;6.43;;;17.10;99.90;;;;;;5016910;28;20034;-68
2023/06/24 00:41:33;;;;;;;12.38;7.25;;;17.00;99.90;;;;;;5008969;28;20451;-68
2023/06/24 00:43:59;;;;;;;11.15;7.05;;;17.00;99.90;;;;;;4992048;28;20546;-68
2023/06/24 00:46:26;;;;;;;9.13;6.40;;;17.00;99.90;;;;;;5007323;28;20058;-68
2023/06/24 00:48:53;;;;;;;11.88;6.55;;;17.00;99.90;;;;;;4986050;28;20046;-68
2023/06/24 00:51:21;;;;;;;11.77;6.28;;;16.90;99.90;;;;;;4998466;28;20046;-68
2023/06/24 00:53:47;;;;;;;9.55;6.93;;;16.90;99.90;;;;;;4990685;28;20156;-68
2023/06/24 00:56:16;;;;;;;9.27;6.82;;;16.90;99.90;;;;;;5008422;28;20151;-68
2023/06/24 00:58:43;;;;;;;9.48;6.63;;;16.90;99.90;;;;;;5006638;28;20042;-68
2023/06/24 01:01:10;;;;;;;11.13;7.15;;;16.90;99.90;;;;;;4995730;28;20124;-68
2023/06/24 01:03:37;;;;;;;10.25;6.22;;;16.90;99.90;;;;;;5005588;28;20059;-68
2023/06/24 01:06:03;;;;;;;10.23;6.82;;;16.80;99.90;;;;;;5005681;28;20050;-68
2023/06/24 01:08:29;;;;;;;9.27;6.68;;;16.80;99.90;;;;;;4999496;28;20614;-68
2023/06/24 01:10:55;;;;;;;14.48;9.18;;;16.80;99.90;;;;;;5005125;28;20046;-68
2023/06/24 01:13:22;;;;;;;11.77;7.47;;;16.80;99.90;;;;;;5005468;28;20061;-67
2023/06/24 01:15:50;;;;;;;12.98;7.82;;;16.80;99.90;;;;;;4986794;28;20046;-68
2023/06/24 01:18:18;;;;;;;11.30;7.88;;;16.80;99.90;;;;;;5002731;28;20120;-68
2023/06/24 01:20:55;;;;;;;10.40;7.88;;;16.70;99.90;;;;;;5006703;28;20042;-68
2023/06/24 01:23:30;;;;;;;10.57;7.13;;;16.80;99.90;;;;;;5005374;28;20100;-70
2023/06/24 01:26:21;;;;;;;13.20;8.52;;;16.70;99.90;;;;;;5006696;28;20045;-70
2023/06/24 01:29:29;;;;;;;13.90;9.05;;;16.70;99.90;;;;;;4987751;28;20566;-70
2023/06/24 01:32:21;;;;;;;12.25;8.80;;;16.70;99.90;;;;;;4998888;28;20058;-70
2023/06/24 01:34:57;;;;;;;12.18;8.27;;;16.70;99.90;;;;;;5005987;28;20050;-69
2023/06/24 01:37:37;;;;;;;12.73;8.93;;;16.70;99.90;;;;;;5006434;28;20582;-71
2023/06/24 01:40:13;;;;;;;16.90;9.38;;;16.60;99.90;;;;;;5007437;28;20042;-70
2023/06/24 01:42:44;;;;;;;16.20;10.43;;;16.60;99.90;;;;;;5020858;28;20054;-70
2023/06/24 01:45:18;;;;;;;13.30;8.98;;;16.60;99.90;;;;;;4991036;28;20518;-70
2023/06/24 01:47:48;;;;;;;14.15;10.48;;;16.60;99.90;;;;;;5008409;28;20052;-70
2023/06/24 01:50:16;;;;;;;15.38;10.80;;;16.60;99.90;;;;;;5005505;28;20466;-70
2023/06/24 01:52:44;;;;;;;15.93;10.55;;;16.60;99.90;;;;;;5006838;28;20823;-70
2023/06/24 01:55:14;;;;;;;17.30;10.20;;;16.60;99.90;;;;;;5006153;28;20046;-70
2023/06/24 01:57:41;;;;;;;13.95;10.77;;;16.50;99.90;;;;;;5006023;28;20042;-70
2023/06/24 02:00:09;;;;;;;13.98;10.40;;;16.60;99.90;;;;;;5007023;28;20072;-70
2023/06/24 02:02:37;;;;;;;15.65;11.18;;;16.60;99.90;;;;;;4987710;28;20038;-70
2023/06/24 02:05:05;;;;;;;16.02;11.27;;;16.50;99.90;;;;;;4988176;28;20050;-70
2023/06/24 02:07:32;;;;;;;14.85;9.82;;;16.50;99.90;;;;;;4994093;28;20569;-70
2023/06/24 02:09:59;;;;;;;14.32;10.57;;;16.40;99.90;;;;;;4994037;28;20572;-71
2023/06/24 02:12:28;;;;;;;15.00;10.45;;;16.40;99.90;;;;;;5007716;28;20049;-70
2023/06/24 02:14:59;;;;;;;14.85;11.25;;;16.40;99.90;;;;;;5004147;28;20037;-70
2023/06/24 02:17:29;;;;;;;20.02;11.35;;;16.40;99.90;;;;;;5004192;28;20058;-70
2023/06/24 02:19:56;;;;;;;20.25;11.63;;;16.40;99.90;;;;;;5003627;28;20068;-71
2023/06/24 02:22:22;;;;;;;18.45;10.93;;;16.40;99.90;;;;;;5002067;28;20164;-70
2023/06/24 02:24:50;;;;;;;19.10;11.57;;;16.30;99.90;;;;;;5006077;28;20048;-70
2023/06/24 02:27:17;;;;;;;17.27;11.07;;;16.30;99.90;;;;;;5003293;28;20045;-70
2023/06/24 02:29:43;;;;;;;18.50;12.02;;;16.30;99.90;;;;;;5000862;28;20056;-70
2023/06/24 02:32:09;;;;;;;14.07;10.73;;;16.20;99.90;;;;;;5006383;28;20054;-70
2023/06/24 02:34:35;;;;;;;17.10;12.57;;;16.20;99.90;;;;;;5005015;28;20053;-70
2023/06/24 02:37:01;;;;;;;18.02;12.27;;;16.20;99.90;;;;;;5005171;28;20103;-71
2023/06/24 02:39:27;;;;;;;18.77;11.95;;;16.20;99.90;;;;;;5003088;28;20050;-70
2023/06/24 02:41:53;;;;;;;19.23;12.32;;;16.20;99.90;;;;;;4987195;28;20178;-70
2023/06/24 02:44:19;;;;;;;17.67;11.80;;;16.20;99.90;;;;;;5005299;28;20076;-70
2023/06/24 02:46:47;;;;;;;16.65;11.85;;;16.20;99.90;;;;;;5007293;28;20045;-70
2023/06/24 02:49:15;;;;;;;17.17;12.38;;;16.20;99.90;;;;;;5004429;28;20046;-70
2023/06/24 02:51:42;;;;;;;17.52;10.80;;;16.10;99.90;;;;;;5007280;28;20046;-70
2023/06/24 02:54:09;;;;;;;18.77;11.63;;;16.10;99.90;;;;;;5003991;28;20046;-70
2023/06/24 02:56:41;;;;;;;18.33;12.43;;;16.10;99.90;;;;;;5005956;28;20057;-70
2023/06/24 02:59:07;;;;;;;15.90;11.18;;;16.10;99.90;;;;;;5013079;28;20046;-70
2023/06/24 03:01:38;;;;;;;15.40;10.57;;;16.10;99.90;;;;;;5002241;28;20041;-70
2023/06/24 03:04:05;;;;;;;15.02;11.00;;;16.10;99.90;;;;;;5004421;28;20104;-70
2023/06/24 03:06:32;;;;;;;15.73;11.00;;;16.10;99.90;;;;;;5004842;28;20042;-70
2023/06/24 03:08:58;;;;;;;15.23;11.40;;;16.10;99.90;;;;;;5004647;28;20049;-70
2023/06/24 03:11:25;;;;;;;16.70;11.75;;;16.10;99.90;;;;;;5006159;28;20137;-70
2023/06/24 03:13:52;;;;;;;17.52;11.88;;;16.10;99.90;;;;;;5006759;28;20054;-70
2023/06/24 03:16:18;;;;;;;14.07;10.23;;;16.10;99.90;;;;;;4990112;28;20057;-70
2023/06/24 03:18:44;;;;;;;18.27;11.35;;;16.00;99.90;;;;;;5003768;28;20049;-68
2023/06/24 03:21:11;;;;;;;20.17;12.00;;;16.00;99.90;;;;;;5005883;28;20065;-68
2023/06/24 03:23:37;;;;;;;15.30;11.40;;;16.00;99.90;;;;;;4989849;28;20132;-68
2023/06/24 03:26:03;;;;;;;19.65;12.32;;;16.00;99.90;;;;;;5007092;28;20081;-68
2023/06/24 03:28:31;;;;;;;18.75;12.52;;;15.90;99.90;;;;;;5009409;28;20045;-68
2023/06/24 03:30:58;;;;;;;17.63;12.27;;;15.90;99.90;;;;;;4998041;28;20099;-68
2023/06/24 03:33:24;;;;;;;17.52;12.40;;;15.90;99.90;;;;;;5007019;28;20050;-68
2023/06/24 03:35:50;;;;;;;17.35;11.93;;;15.90;99.90;;;;;;5004803;28;20038;-68
2023/06/24 03:38:16;;;;;;;16.73;12.02;;;15.90;99.90;;;;;;5006659;28;20124;-68
2023/06/24 03:40:43;;;;;;;15.93;11.55;;;15.90;99.90;;;;;;5005558;28;20579;-68
2023/06/24 03:43:09;;;;;;;18.13;12.27;;;15.80;99.90;;;;;;5003728;28;20099;-68
2023/06/24 03:45:35;;;;;;;17.85;11.88;;;15.80;99.90;;;;;;5008157;28;20058;-70
2023/06/24 03:48:01;;;;;;;17.95;11.00;;;15.80;99.90;;;;;;5005272;28;20273;-70
2023/06/24 03:50:26;;;;;;;14.40;10.80;;;15.80;99.90;;;;;;5006832;28;20762;-70
2023/06/24 03:52:52;;;;;;;17.33;10.88;;;15.80;99.90;;;;;;4998351;28;20053;-70
2023/06/24 03:55:18;;;;;;;13.63;10.23;;;15.80;99.90;;;;;;5009175;28;20483;-70
2023/06/24 03:57:44;;;;;;;19.67;11.50;;;15.80;99.90;;;;;;4976736;28;20050;-70
2023/06/24 04:00:16;;;;;;;17.33;11.10;;;15.80;99.90;;;;;;5001917;28;20041;-70
2023/06/24 04:02:42;;;;;;;17.13;11.38;;;15.80;99.90;;;;;;5006253;28;20038;-70
2023/06/24 04:05:09;;;;;;;20.20;10.95;;;15.80;99.90;;;;;;5007707;28;20705;-70
2023/06/24 04:07:35;;;;;;;15.40;10.30;;;15.80;99.90;;;;;;4998953;28;20084;-70
2023/06/24 04:10:03;;;;;;;16.58;10.63;;;15.80;99.90;;;;;;5003647;28;20101;-70
2023/06/24 04:12:29;;;;;;;13.93;10.57;;;15.80;99.90;;;;;;4997342;28;20050;-70
2023/06/24 04:14:55;;;;;;;17.73;11.30;;;15.80;99.90;;;;;;4985007;28;20073;-70
2023/06/24 04:17:21;;;;;;;15.18;10.23;;;15.90;99.90;;;;;;5004631;28;20049;-71
2023/06/24 04:19:47;;;;;;;16.80;11.25;;;16.00;99.90;;;;;;5005307;28;20056;-70
2023/06/24 04:22:13;;;;;;;14.55;10.23;;;15.90;99.90;;;;;;5007254;28;20088;-70
2023/06/24 04:24:38;;;;;;;16.52;10.75;;;15.90;99.90;;;;;;5005955;28;20566;-70
2023/06/24 04:27:07;;;;;;;18.27;11.07;;;15.90;99.90;;;;;;5008469;28;20046;-71
2023/06/24 04:29:32;;;;;;;13.95;10.18;;;15.90;99.90;;;;;;4990619;28;20077;-70
2023/06/24 04:31:58;;;;;;;15.82;10.63;;;16.00;99.90;;;;;;5005632;28;20042;-70
2023/06/24 04:34:24;;;;;;;14.40;10.10;;;16.00;99.90;;;;;;5005523;28;20057;-71
2023/06/24 04:36:49;;;;;;;15.05;11.10;;;16.00;99.90;;;;;;5008179;28;20449;-70
2023/06/24 04:39:15;;;;;;;16.70;10.77;;;16.00;99.90;;;;;;4996719;28;20551;-70
2023/06/24 04:41:42;;;;;;;18.10;11.38;;;16.10;99.90;;;;;;5006947;28;20053;-71
2023/06/24 04:44:08;;;;;;;14.85;10.20;;;16.20;99.90;;;;;;5003906;28;20050;-71
2023/06/24 04:46:34;;;;;;;15.23;9.70;;;16.40;99.90;;;;;;5004551;28;20050;-71
2023/06/24 04:49:00;;;;;;;16.33;9.77;;;16.60;99.90;;;;;;4989791;28;20411;-71
2023/06/24 04:51:26;;;;;;;15.13;10.02;;;16.80;99.90;;;;;;5009799;28;20050;-71
2023/06/24 04:53:51;;;;;;;13.05;8.85;;;17.10;99.90;;;;;;5007188;28;20458;-71
2023/06/24 04:56:17;;;;;;;13.95;8.32;;;17.40;99.90;;;;;;5008551;28;20038;-71
2023/06/24 04:58:43;;;;;;;12.77;8.68;;;17.60;99.90;;;;;;4991938;28;20096;-71
2023/06/24 05:01:10;;;;;;;13.77;8.70;;;17.90;99.90;;;;;;5008941;28;20045;-70
2023/06/24 05:03:35;;;;;;;11.82;8.40;;;18.20;99.90;;;;;;5008419;28;20060;-68
2023/06/24 05:06:01;;;;;;;11.88;8.60;;;18.40;99.90;;;;;;5008231;28;20037;-68
2023/06/24 05:08:27;;;;;;;15.18;8.50;;;18.60;99.90;;;;;;5008332;28;20499;-68
2023/06/24 05:10:52;;;;;;;12.50;8.50;;;18.80;99.90;;;;;;5005892;28;20104;-68
2023/06/24 05:13:18;;;;;;;13.20;8.77;;;19.10;99.90;;;;;;5008626;28;20056;-68
2023/06/24 05:15:44;;;;;;;11.80;8.77;;;19.30;99.90;;;;;;5008435;28;20145;-68
2023/06/24 05:18:10;;;;;;;14.45;8.23;;;19.50;99.90;;;;;;5007381;28;20052;-69
2023/06/24 05:20:35;;;;;;;10.75;7.97;;;19.70;99.90;;;;;;5006459;28;20042;-69
2023/06/24 05:23:01;;;;;;;12.02;8.18;;;19.90;99.90;;;;;;5009336;28;20052;-68
2023/06/24 05:25:27;;;;;;;13.60;9.00;;;20.20;99.90;;;;;;4991969;28;20053;-69
2023/06/24 05:27:52;;;;;;;12.05;8.98;;;20.40;99.90;;;;;;5007776;28;20030;-68
2023/06/24 05:30:18;;;;;;;13.35;8.50;;;20.60;99.90;;;;;;4998319;28;20448;-68
2023/06/24 05:32:44;;;;;;;11.05;7.93;;;20.70;99.90;;;;;;5000126;28;20052;-69
2023/06/24 05:35:10;;;;;;;12.00;8.00;;;20.90;99.90;;;;;;5008540;28;20046;-69
2023/06/24 05:37:36;;;;;;;13.95;8.40;;;20.90;99.90;;;;;;5005933;28;20074;-68
2023/06/24 05:40:03;;;;;;;11.07;8.43;;;20.60;99.90;;;;;;5007252;28;20128;-68
2023/06/24 05:42:28;;;;;;;12.02;8.95;;;20.40;99.90;;;;;;5007692;28;20091;-68
2023/06/24 05:44:54;;;;;;;15.00;9.30;;;20.20;99.90;;;;;;5008422;28;20057;-68
2023/06/24 05:47:20;;;;;;;15.45;8.88;;;20.00;99.90;;;;;;5007714;28;20046;-68
2023/06/24 05:49:45;;;;;;;12.95;8.68;;;19.90;99.90;;;;;;5000190;28;20046;-67
2023/06/24 05:52:14;;;;;;;14.68;8.73;;;19.80;99.90;;;;;;5008856;28;21159;-68
2023/06/24 05:54:40;;;;;;;14.13;9.00;;;19.70;99.90;;;;;;5008462;28;20538;-68
2023/06/24 05:57:06;;;;;;;12.02;8.93;;;19.60;99.90;;;;;;5008310;28;20048;-68
2023/06/24 05:59:32;;;;;;;14.07;9.20;;;19.60;99.90;;;;;;5008105;28;20060;-67
2023/06/24 06:01:58;;;;;;;13.20;9.15;;;19.60;99.90;;;;;;4985039;28;20042;-68
2023/06/24 06:04:23;;;;;;;17.80;10.20;;;19.60;99.90;;;;;;5003616;28;20425;-68
2023/06/24 06:06:49;;;;;;;13.30;9.20;;;19.80;99.90;;;;;;5006676;28;20413;-69
2023/06/24 06:09:15;;;;;;;12.82;8.50;;;20.10;99.90;;;;;;5001634;28;20134;-69
2023/06/24 06:11:41;;;;;;;12.05;8.05;;;20.50;99.90;;;;;;5005633;28;20561;-68
2023/06/24 06:14:07;;;;;;;12.35;9.10;;;20.90;99.90;;;;;;5006967;28;20058;-68
2023/06/24 06:16:33;;;;;;;13.63;9.45;;;21.20;99.90;;;;;;4990790;28;20567;-68
2023/06/24 06:18:58;;;;;;;15.55;8.50;;;21.50;99.90;;;;;;5006219;28;20078;-69
2023/06/24 06:21:24;;;;;;;12.90;8.50;;;21.80;99.90;;;;;;5006169;28;20111;-69
2023/06/24 06:23:50;;;;;;;13.40;9.50;;;21.90;99.90;;;;;;5004917;28;20046;-69
2023/06/24 06:26:16;;;;;;;14.52;9.35;;;21.90;99.90;;;;;;5006107;28;20045;-69
2023/06/24 06:28:42;;;;;;;14.10;9.10;;;21.80;99.90;;;;;;5001688;28;20052;-69
2023/06/24 06:31:08;;;;;;;13.70;9.40;;;21.70;99.90;;;;;;5001329;28;20041;-69
2023/06/24 06:33:34;;;;;;;13.68;8.93;;;21.50;99.90;;;;;;5002260;28;20050;-69
2023/06/24 06:35:59;;;;;;;16.88;9.30;;;21.30;99.90;;;;;;5004746;28;20042;-69
2023/06/24 06:38:25;;;;;;;15.50;8.90;;;21.20;99.90;;;;;;4999282;28;20073;-69
2023/06/24 06:40:51;;;;;;;14.18;9.25;;;21.10;99.90;;;;;;4994747;28;20050;-69
2023/06/24 06:43:16;;;;;;;16.45;8.73;;;21.10;99.90;;;;;;5000822;28;20052;-69
2023/06/24 06:45:42;;;;;;;10.63;8.13;;;21.00;99.90;;;;;;5002767;28;20045;-69
2023/06/24 06:48:08;;;;;;;12.45;7.57;;;21.00;99.90;;;;;;4998790;28;20043;-69
2023/06/24 06:50:35;;;;;;;12.40;8.38;;;20.90;99.90;;;;;;5000731;28;20687;-69
2023/06/24 06:53:00;;;;;;;13.68;8.07;;;20.90;99.90;;;;;;4985558;28;20112;-69
2023/06/24 06:55:27;;;;;;;12.32;7.78;;;20.90;99.90;;;;;;5001512;28;20066;-69
2023/06/24 06:57:53;;;;;;;10.18;6.82;;;20.80;99.90;;;;;;5000740;28;20045;-69
2023/06/24 07:00:19;;;;;;;11.50;7.55;;;20.90;99.90;;;;;;5002861;28;20581;-69
2023/06/24 07:02:44;;;;;;;11.88;7.45;;;20.90;99.90;;;;;;5004741;28;20057;-69
2023/06/24 07:05:11;;;;;;;9.95;6.57;;;20.80;99.90;;;;;;5002466;28;20113;-69
2023/06/24 07:07:40;;;;;;;10.57;6.45;;;20.80;99.90;;;;;;5003106;28;20042;-69
2023/06/24 07:10:06;;;;;;;10.45;6.40;;;20.80;99.90;;;;;;4998430;28;20057;-69
2023/06/24 07:12:32;;;;;;;10.15;7.22;;;20.80;99.90;;;;;;4998255;28;20756;-69
2023/06/24 07:14:58;;;;;;;9.25;6.20;;;20.90;99.90;;;;;;4998104;28;20124;-69
2023/06/24 07:17:23;;;;;;;9.38;6.40;;;20.90;99.90;;;;;;4990479;28;20054;-69
2023/06/24 07:19:49;;;;;;;9.50;6.43;;;21.00;99.90;;;;;;4978570;28;20065;-69
2023/06/24 07:22:15;;;;;;;11.50;6.22;;;21.00;99.90;;;;;;5005003;28;20081;-69
2023/06/24 07:24:42;;;;;;;10.30;6.78;;;21.10;99.90;;;;;;4989126;28;20121;-69
2023/06/24 07:27:07;;;;;;;10.57;5.93;;;21.20;99.90;;;;;;4989946;28;20045;-69
2023/06/24 07:29:33;;;;;;;9.88;5.50;;;21.20;99.90;;;;;;4990977;28;20053;-69
2023/06/24 07:31:59;;;;;;;13.30;6.18;;;21.30;99.90;;;;;;4989125;28;20526;-68
2023/06/24 07:34:25;;;;;;;9.98;5.88;;;21.40;99.90;;;;;;4993626;28;20065;-69
2023/06/24 07:36:51;;;;;;;7.60;4.75;;;21.40;99.90;;;;;;4992899;28;20049;-69
2023/06/24 07:39:17;;;;;;;9.40;5.13;;;21.50;99.90;;;;;;4989588;28;20450;-69
2023/06/24 07:41:43;;;;;;;11.52;5.03;;;21.60;99.90;;;;;;4990773;28;20060;-69
2023/06/24 07:44:09;;;;;;;9.15;5.63;;;21.60;99.90;;;;;;4990580;28;20087;-69
2023/06/24 07:46:35;;;;;;;8.05;4.45;;;21.70;99.90;;;;;;4993558;28;20045;-69
2023/06/24 07:49:01;;;;;;;9.45;4.82;;;21.70;99.90;;;;;;4975809;28;20065;-69
2023/06/24 07:51:27;;;;;;;8.75;4.95;;;21.80;99.90;;;;;;4990429;28;20042;-69
2023/06/24 07:53:53;;;;;;;7.82;4.78;;;21.80;99.90;;;;;;4990584;28;20044;-69
2023/06/24 07:56:18;;;;;;;9.13;5.30;;;21.90;99.90;;;;;;4985094;28;20577;-69
2023/06/24 07:58:44;;;;;;;12.10;6.22;;;22.00;99.90;;;;;;4989974;28;20730;-69
2023/06/24 08:01:10;;;;;;;8.02;5.03;;;22.00;99.90;;;;;;4978858;28;20073;-69
2023/06/24 08:03:38;;;;;;;9.82;5.30;;;22.00;99.90;;;;;;4989978;28;20125;-69
2023/06/24 08:06:04;;;;;;;9.32;5.13;;;22.10;99.90;;;;;;4988721;28;21036;-69
2023/06/24 08:08:30;;;;;;;9.18;5.13;;;22.20;99.90;;;;;;4989913;28;20039;-69
2023/06/24 08:10:55;;;;;;;11.02;5.50;;;22.20;99.90;;;;;;4992500;28;20133;-69
2023/06/24 08:13:21;;;;;;;8.63;4.57;;;22.20;99.90;;;;;;4992599;28;20045;-69
2023/06/24 08:15:47;;;;;;;9.30;5.18;;;22.20;99.90;;;;;;4998197;28;20042;-70
2023/06/24 08:18:13;;;;;;;11.82;5.75;;;22.30;99.90;;;;;;4995547;28;20050;-70
2023/06/24 08:20:39;;;;;;;9.20;5.53;;;22.30;99.90;;;;;;4995427;28;20508;-69
2023/06/24 08:23:04;;;;;;;8.57;5.32;;;22.30;99.90;;;;;;4999452;28;20128;-69
2023/06/24 08:25:30;;;;;;;8.93;5.15;;;22.40;99.90;;;;;;5002122;28;20133;-69
2023/06/24 08:27:56;;;;;;;11.25;5.35;;;22.40;99.90;;;;;;5000013;28;20045;-68
2023/06/24 08:30:22;;;;;;;10.90;5.07;;;22.50;99.90;;;;;;4995797;28;20503;-69
2023/06/24 08:32:47;;;;;;;9.38;5.32;;;22.50;99.90;;;;;;4995580;28;20041;-69
2023/06/24 08:35:13;;;;;;;8.65;4.88;;;22.50;99.90;;;;;;4996072;28;20064;-69
2023/06/24 08:37:40;;;;;;;8.32;5.30;;;22.60;99.90;;;;;;4997397;28;20050;-69
2023/06/24 08:40:06;;;;;;;10.57;4.75;;;22.60;99.90;;;;;;4998320;28;20038;-69
2023/06/24 08:42:32;;;;;;;10.38;5.03;;;22.70;99.90;;;;;;4996979;28;20041;-69
2023/06/24 08:44:58;;;;;;;9.30;4.78;;;22.70;99.90;;;;;;4988243;28;20218;-69
2023/06/24 08:47:24;;;;;;;9.35;5.15;;;22.80;99.90;;;;;;5005551;28;20038;-69
2023/06/24 08:49:58;;;;;;;11.93;5.65;;;22.80;99.90;;;;;;4989434;28;20046;-69
2023/06/24 08:52:28;;;;;;;8.93;5.07;;;22.90;99.90;;;;;;5001250;28;20049;-70
2023/06/24 08:54:57;;;;;;;8.45;4.88;;;22.90;99.90;;;;;;4990332;28;20710;-69
2023/06/24 08:57:23;;;;;;;8.60;5.38;;;23.00;99.90;;;;;;5008058;28;20133;-69
2023/06/24 08:59:49;;;;;;;8.80;4.85;;;23.10;99.90;;;;;;5003179;28;20658;-69
2023/06/24 09:02:15;;;;;;;9.43;5.45;;;23.10;99.90;;;;;;5004234;28;20073;-68
2023/06/24 09:04:41;;;;;;;9.70;5.53;;;23.20;99.90;;;;;;5004780;28;20129;-68
2023/06/24 09:07:07;;;;;;;8.05;5.38;;;23.20;99.90;;;;;;5002740;28;20486;-68
2023/06/24 09:09:32;;;;;;;9.95;5.57;;;23.30;99.90;;;;;;5007062;28;20042;-69
2023/06/24 09:12:00;;;;;;;8.60;5.03;;;23.40;99.90;;;;;;5006762;28;20045;-69
2023/06/24 09:14:27;;;;;;;8.80;4.80;;;23.40;99.90;;;;;;5004942;28;20054;-69
2023/06/24 09:16:53;;;;;;;9.55;5.45;;;23.50;99.90;;;;;;5004984;28;20105;-69
2023/06/24 09:19:23;;;;;;;9.10;5.47;;;23.60;99.90;;;;;;5003963;28;20079;-69
2023/06/24 09:21:52;;;;;;;8.88;4.75;;;23.70;99.90;;;;;;4987749;28;20065;-69
2023/06/24 09:24:18;;;;;;;9.30;5.60;;;23.80;99.90;;;;;;4984327;28;20422;-69
2023/06/24 09:26:45;;;;;;;8.57;5.15;;;23.90;99.90;;;;;;4998771;28;20057;-73
2023/06/24 09:29:12;;;;;;;9.55;5.15;;;24.00;99.90;;;;;;4985398;28;20053;-73
2023/06/24 09:31:52;;;;;;;13.27;5.05;;;24.20;99.90;;;;;;5002223;28;20138;-73
2023/06/24 09:34:19;;;;;;;8.27;4.60;;;24.30;99.90;;;;;;5002845;28;20053;-73
2023/06/24 09:36:50;;;;;;;13.30;5.55;;;24.40;99.90;;;;;;4999965;28;20494;-75
2023/06/24 09:39:17;;;;;;;11.13;4.43;;;24.60;99.90;;;;;;5006353;28;20054;-75
2023/06/24 09:41:43;;;;;;;10.27;4.30;;;24.70;99.90;;;;;;5006580;28;20053;-75
2023/06/24 09:44:11;;;;;;;10.27;4.93;;;24.80;99.90;;;;;;5003945;28;20042;-75
2023/06/24 09:46:38;;;;;;;8.35;4.57;;;24.90;99.90;;;;;;5002198;28;20188;-75
2023/06/24 09:49:06;;;;;;;9.63;4.32;;;25.00;99.90;;;;;;4999098;28;20033;-75
2023/06/24 09:51:39;;;;;;;9.02;4.45;;;25.10;99.90;;;;;;5003317;28;20049;-76
2023/06/24 09:54:09;;;;;;;10.57;4.32;;;25.20;99.90;;;;;;4998913;28;20129;-76
2023/06/24 09:56:39;;;;;;;9.93;4.20;;;25.30;99.90;;;;;;5004149;28;20050;-77
2023/06/24 09:59:05;;;;;;;8.82;4.38;;;25.30;99.90;;;;;;5002790;28;20503;-76
2023/06/24 10:01:38;;;;;;;8.15;4.47;;;25.40;99.90;;;;;;4989583;28;20100;-76
2023/06/24 10:04:05;;;;;;;8.82;4.38;;;25.60;99.90;;;;;;5003510;28;20045;-77
2023/06/24 10:06:33;;;;;;;7.32;4.22;;;25.60;99.90;;;;;;5002887;28;20080;-75
2023/06/24 10:08:59;;;;;;;8.35;4.53;;;25.70;99.90;;;;;;5003877;28;20045;-76
2023/06/24 10:11:25;;;;;;;7.65;4.50;;;25.90;99.90;;;;;;5003155;28;20045;-76
2023/06/24 10:13:52;;;;;;;10.68;5.40;;;25.80;99.90;;;;;;4987150;28;20041;-77
2023/06/24 10:16:19;;;;;;;10.35;4.68;;;25.90;99.90;;;;;;5005444;28;20046;-77
2023/06/24 10:18:45;;;;;;;8.85;5.25;;;25.90;99.90;;;;;;5003247;28;20092;-77
2023/06/24 10:21:11;;;;;;;9.20;4.32;;;26.00;99.90;;;;;;4984730;28;20164;-76
2023/06/24 10:23:49;;;;;;;9.00;4.20;;;26.00;99.90;;;;;;5001016;28;20143;-77
2023/06/24 10:26:41;;;;;;;7.65;4.28;;;26.10;99.90;;;;;;5006243;28;20046;-76
2023/06/24 10:29:07;;;;;;;7.70;4.72;;;26.10;99.90;;;;;;4997729;28;20120;-77
2023/06/24 10:31:44;;;;;;;7.93;4.18;;;26.20;99.90;;;;;;5008434;28;20045;-78
2023/06/24 10:34:22;;;;;;;9.95;4.22;;;26.30;99.90;;;;;;4986264;28;20046;-70
2023/06/24 10:37:02;;;;;;;8.68;3.80;;;26.30;99.90;;;;;;4997870;28;20826;-70
2023/06/24 10:40:02;;;;;;;8.02;4.07;;;26.30;99.90;;;;;;5003513;28;20069;-70
2023/06/24 10:42:37;;;;;;;6.75;3.70;;;26.20;99.90;;;;;;4982265;28;20447;-77
2023/06/24 10:45:09;;;;;;;8.93;3.75;;;26.30;99.90;;;;;;4994098;28;20068;-77
2023/06/24 10:47:39;;;;;;;9.07;3.70;;;26.30;99.90;;;;;;5001846;28;20050;-76
2023/06/24 10:50:06;;;;;;;8.57;3.55;;;26.40;99.90;;;;;;4996012;28;20161;-77
2023/06/24 10:52:32;;;;;;;8.25;3.92;;;26.40;99.90;;;;;;4986753;28;20081;-77
2023/06/24 10:54:58;;;;;;;6.10;3.50;;;26.50;99.90;;;;;;4999975;28;20041;-75
2023/06/24 10:57:26;;;;;;;8.77;4.03;;;26.60;99.90;;;;;;5003384;28;20419;-77
2023/06/24 10:59:54;;;;;;;6.53;3.60;;;26.60;99.90;;;;;;4999416;28;20053;-77
2023/06/24 11:02:25;;;;;;;8.57;3.50;;;26.60;99.90;;;;;;5002826;28;20474;-77
2023/06/24 11:04:59;;;;;;;10.45;4.00;;;26.60;99.90;;;;;;5002038;28;20053;-77
2023/06/24 11:07:27;;;;;;;8.27;4.10;;;26.50;99.90;;;;;;4997158;28;20049;-77
2023/06/24 11:09:55;;;;;;;7.80;3.75;;;26.50;99.90;;;;;;5004710;28;20049;-75
2023/06/24 11:12:25;;;;;;;8.68;3.80;;;26.40;99.90;;;;;;5003531;28;20034;-77
2023/06/24 11:14:54;;;;;;;7.30;4.03;;;26.40;99.90;;;;;;5003518;28;20415;-77
2023/06/24 11:17:20;;;;;;;9.82;4.18;;;26.30;99.90;;;;;;5005819;28;20033;-76
2023/06/24 11:19:46;;;;;;;9.45;3.47;;;26.30;99.90;;;;;;5004825;28;20042;-76
2023/06/24 11:22:12;;;;;;;6.80;3.38;;;26.40;99.90;;;;;;5003320;28;20053;-77
2023/06/24 11:24:39;;;;;;;6.78;3.30;;;26.30;99.90;;;;;;4988374;28;20054;-77
2023/06/24 11:27:05;;;;;;;9.18;3.40;;;26.40;99.90;;;;;;5005728;28;20460;-76
2023/06/24 11:29:33;;;;;;;11.13;3.47;;;26.50;99.90;;;;;;5004791;28;20054;-77
2023/06/24 11:32:00;;;;;;;6.93;3.70;;;26.50;99.90;;;;;;5006267;28;20065;-77
2023/06/24 11:34:26;;;;;;;7.88;3.83;;;26.40;98.60;;;;;;5004373;28;20049;-78
2023/06/24 11:36:52;;;;;;;11.18;3.63;;;26.40;99.50;;;;;;5001876;28;20125;-78
2023/06/24 11:39:26;;;;;;;7.38;3.38;;;26.40;99.80;;;;;;5003010;28;20521;-77
2023/06/24 11:41:53;;;;;;;7.78;3.63;;;26.40;99.80;;;;;;5000826;28;20570;-76
2023/06/24 11:44:23;;;;;;;7.45;3.50;;;26.40;99.90;;;;;;4978486;28;20411;-78
2023/06/24 11:46:49;;;;;;;7.13;3.40;;;26.40;99.90;;;;;;4999018;28;20129;-78
2023/06/24 11:49:16;;;;;;;9.25;4.10;;;26.30;99.80;;;;;;5004513;28;20133;-78
2023/06/24 11:51:50;;;;;;;6.35;3.55;;;26.30;99.90;;;;;;5000443;28;20050;-78
2023/06/24 11:54:20;;;;;;;8.77;3.40;;;26.30;99.90;;;;;;4987072;28;20044;-78
2023/06/24 11:56:52;;;;;;;7.07;3.50;;;26.40;99.90;;;;;;5004813;28;20494;-78
2023/06/24 11:59:19;;;;;;;6.85;3.65;;;26.40;99.90;;;;;;5003551;28;20513;-77
2023/06/24 12:01:52;;;;;;;10.70;3.75;;;26.50;99.90;;;;;;5004912;28;20152;-78
2023/06/24 12:04:17;;;;;;;9.73;3.83;;;26.70;99.90;;;;;;5006102;28;20081;-77
2023/06/24 12:06:44;;;;;;;7.43;3.60;;;26.80;99.70;;;;;;5004516;28;20084;-78
2023/06/24 12:09:10;;;;;;;6.75;3.40;;;26.80;99.70;;;;;;5004084;28;20179;-78
2023/06/24 12:11:36;;;;;;;6.13;3.17;;;26.80;99.00;;;;;;5002790;28;20041;-77
2023/06/24 12:14:03;;;;;;;7.95;3.60;;;26.80;98.90;;;;;;5001076;28;20062;-77
2023/06/24 12:16:29;;;;;;;7.93;3.25;;;26.80;98.70;;;;;;5002330;28;20080;-78
2023/06/24 12:18:55;;;;;;;6.45;3.35;;;26.80;98.50;;;;;;5004776;28;20050;-77
2023/06/24 12:21:21;;;;;;;6.00;3.42;;;26.80;99.10;;;;;;5002096;28;20054;-78
2023/06/24 12:23:47;;;;;;;7.53;4.07;;;26.80;98.90;;;;;;4999948;28;20135;-78
2023/06/24 12:26:13;;;;;;;7.70;3.30;;;26.80;99.30;;;;;;5003972;28;20459;-78
2023/06/24 12:28:39;;;;;;;7.78;3.63;;;26.80;99.50;;;;;;5005260;28;20478;-78
2023/06/24 12:31:04;;;;;;;6.13;3.22;;;26.80;98.50;;;;;;5007657;28;20048;-77
2023/06/24 12:33:30;;;;;;;7.57;3.55;;;26.80;99.30;;;;;;5002179;28;20046;-78
2023/06/24 12:35:56;;;;;;;9.00;3.13;;;26.90;99.50;;;;;;5005679;28;20046;-77
2023/06/24 12:38:22;;;;;;;8.77;3.83;;;26.90;99.30;;;;;;5000824;28;20049;-77
2023/06/24 12:40:48;;;;;;;9.05;3.92;;;27.00;98.90;;;;;;5006154;28;20131;-79